Zad Elkhir — 3FFX2 — position and weather

sailwx.info

Track history (hours):
 
Tides and Currents Weather Stations Pressure Air Temp Water Temp Dewpoint Dewpoint Depression Visibility Wind Speed Wind Dir Waves Ship Positions

Zad Elkhir

Last reported at 2017-Sep-17 15:11 UTC. Time now 2017-Sep-21 16:16 UTC.
Position N 30°25' E 019°36'.

Length 113 m; draft 4 m.

Type: Cargo ship. MMSI: 304010676.

Date/timePositionNaut miles runAvg speedWind from/ knotsBaromVisibWave heightAir tempDewpointWater temp
2017-Sep-17 15:11N 30°25' E 019°36'0 0.0
2017-Sep-17 14:53N 30°25' E 019°36'0 0.0
2017-Sep-17 13:35N 30°25' E 019°36'0 0.0
2017-Sep-17 13:29N 30°25' E 019°36'0 0.0
2017-Sep-17 12:47N 30°25' E 019°36'0 0.0
2017-Sep-17 12:29N 30°25' E 019°36'0 0.0
2017-Sep-17 11:05N 30°25' E 019°36'0 0.0
2017-Sep-17 10:59N 30°25' E 019°36'0 0.0
2017-Sep-17 10:29N 30°25' E 019°36'0 0.0
2017-Sep-17 09:47N 30°25' E 019°36'0 0.0
2017-Sep-17 09:11N 30°25' E 019°36'0 0.0
2017-Sep-17 08:56N 30°25' E 019°36'2 0.7
2017-Sep-17 06:32N 30°27' E 019°35'2 7.5
2017-Sep-17 06:13N 30°29' E 019°36'2 4.0
2017-Sep-17 05:48N 30°31' E 019°36'2 5.7
2017-Sep-17 05:30N 30°32' E 019°35'611.3
2017-Sep-17 05:00N 30°36' E 019°30'611.6
2017-Sep-17 04:30N 30°40' E 019°25'610.8
2017-Sep-17 03:54N 30°45' E 019°20'1412.8
2017-Sep-17 02:49N 30°56' E 019°10'513.4
2017-Sep-17 02:25N 31°00' E 019°07'613.5
2017-Sep-17 02:00N 31°05' E 019°03'713.4
2017-Sep-17 01:30N 31°10' E 018°59'713.4
2017-Sep-17 01:00N 31°16' E 018°54'713.2
2017-Sep-17 00:30N 31°21' E 018°49'713.1
2017-Sep-17 00:00N 31°26' E 018°45'613.1
2017-Sep-16 23:30N 31°31' E 018°40'1313.1
2017-Sep-16 22:31N 31°42' E 018°31'013.2
2017-Sep-16 22:29N 31°42' E 018°30'1313.0
2017-Sep-16 21:30N 31°52' E 018°21'2213.0
2017-Sep-16 19:48N 32°10' E 018°06'413.4
2017-Sep-16 19:30N 32°13' E 018°03'713.3
2017-Sep-16 18:57N 32°19' E 017°58'613.1
2017-Sep-16 18:30N 32°24' E 017°54'613.1
2017-Sep-16 18:00N 32°29' E 017°49'612.8
2017-Sep-16 17:30N 32°34' E 017°44'613.0
2017-Sep-16 17:00N 32°39' E 017°40'613.0
2017-Sep-16 16:30N 32°45' E 017°35'613.1
2017-Sep-16 16:00N 32°50' E 017°31'713.4
2017-Sep-16 15:30N 32°55' E 017°26'713.7
2017-Sep-16 15:00N 33°01' E 017°21'713.7
2017-Sep-16 14:30N 33°06' E 017°16'713.5
2017-Sep-16 14:00N 33°12' E 017°12'713.4
2017-Sep-16 13:30N 33°17' E 017°07'713.2
2017-Sep-16 13:00N 33°22' E 017°02'713.2
2017-Sep-16 12:30N 33°27' E 016°57'612.9
2017-Sep-16 12:00N 33°32' E 016°52'612.7
2017-Sep-16 11:30N 33°37' E 016°47'612.6
2017-Sep-16 11:00N 33°43' E 016°43'612.6
2017-Sep-16 10:30N 33°48' E 016°39'612.7
2017-Sep-16 10:00N 33°53' E 016°35'612.7
2017-Sep-16 09:30N 33°58' E 016°31'612.8
2017-Sep-16 09:00N 34°04' E 016°26'612.8
2017-Sep-16 08:30N 34°09' E 016°22'713.0
2017-Sep-16 08:00N 34°14' E 016°17'612.9
2017-Sep-16 07:30N 34°19' E 016°12'713.3
2017-Sep-16 07:00N 34°24' E 016°07'713.0
2017-Sep-16 06:30N 34°29' E 016°02'613.1
2017-Sep-16 06:00N 34°34' E 015°57'713.2
2017-Sep-16 05:30N 34°39' E 015°51'713.3
2017-Sep-16 05:00N 34°44' E 015°46'713.2
2017-Sep-16 04:30N 34°49' E 015°42'713.3
2017-Sep-16 04:00N 34°55' E 015°37'713.2
2017-Sep-16 03:30N 35°01' E 015°33'713.2
2017-Sep-16 03:00N 35°06' E 015°29'713.5
2017-Sep-16 02:30N 35°12' E 015°24'713.8
2017-Sep-16 02:00N 35°18' E 015°20'714.0
2017-Sep-16 01:30N 35°23' E 015°14'714.2
2017-Sep-16 01:00N 35°29' E 015°09'713.9
2017-Sep-16 00:30N 35°34' E 015°04'713.9
2017-Sep-16 00:00N 35°40' E 014°58'713.9
2017-Sep-15 23:30N 35°45' E 014°53'713.7
2017-Sep-15 23:00N 35°50' E 014°48'2 4.5
2017-Sep-15 22:30N 35°52' E 014°46'0 0.0
2017-Sep-15 22:00N 35°52' E 014°46'0 0.0
2017-Sep-15 21:27N 35°52' E 014°46'0 0.0
2017-Sep-15 21:00N 35°52' E 014°46'0 0.0
2017-Sep-15 20:30N 35°52' E 014°46'0 0.0
2017-Sep-15 20:00N 35°52' E 014°46'0 0.0
2017-Sep-15 19:30N 35°52' E 014°46'0 0.0
2017-Sep-15 19:00N 35°52' E 014°46'0 0.0
2017-Sep-15 18:30N 35°52' E 014°46'0 0.0
2017-Sep-15 17:48N 35°52' E 014°46'0 0.1
2017-Sep-15 17:27N 35°52' E 014°46'1 1.1
2017-Sep-15 17:00N 35°52' E 014°46'510.1
2017-Sep-15 16:30N 35°47' E 014°44'713.6
2017-Sep-15 16:00N 35°40' E 014°43'4 7.0
2017-Sep-15 15:30N 35°37' E 014°42'2 3.9
2017-Sep-15 15:00N 35°38' E 014°40'713.7
2017-Sep-15 14:30N 35°39' E 014°31'4 7.0
2017-Sep-15 14:00N 35°40' E 014°27'0 0.4
2017-Sep-15 13:25N 35°40' E 014°27'0 0.5
2017-Sep-15 12:58N 35°40' E 014°27'0 0.5
2017-Sep-15 12:30N 35°40' E 014°27'0 0.5
2017-Sep-15 11:55N 35°39' E 014°28'0 0.4
2017-Sep-15 11:30N 35°39' E 014°28'0 0.4
2017-Sep-15 11:00N 35°39' E 014°28'0 0.4
2017-Sep-15 10:30N 35°39' E 014°28'0 0.4
2017-Sep-15 09:59N 35°39' E 014°28'0 0.5
2017-Sep-15 09:29N 35°38' E 014°28'0 0.5
2017-Sep-15 09:01N 35°38' E 014°28'0 0.4
2017-Sep-15 08:29N 35°38' E 014°28'0 0.3
2017-Sep-15 08:00N 35°38' E 014°28'0 0.3
2017-Sep-15 07:30N 35°38' E 014°29'0 0.3
2017-Sep-15 07:00N 35°38' E 014°29'0 0.4
2017-Sep-15 06:30N 35°38' E 014°29'0 0.4
2017-Sep-15 06:00N 35°37' E 014°29'0 0.4
2017-Sep-15 05:30N 35°37' E 014°29'0 0.4
2017-Sep-15 05:00N 35°37' E 014°29'0 0.4
2017-Sep-15 04:30N 35°37' E 014°29'0 0.4
2017-Sep-15 04:01N 35°37' E 014°29'0 0.4
2017-Sep-15 03:29N 35°36' E 014°29'0 0.5
2017-Sep-15 03:00N 35°36' E 014°29'0 0.5
2017-Sep-15 02:30N 35°36' E 014°29'0 0.4
2017-Sep-15 02:00N 35°36' E 014°29'3 5.1
2017-Sep-15 01:30N 35°38' E 014°27'713.4
2017-Sep-15 01:00N 35°43' E 014°23'713.6
2017-Sep-15 00:30N 35°49' E 014°17'713.4
2017-Sep-15 00:00N 35°53' E 014°11'713.4
2017-Sep-14 23:30N 35°57' E 014°05'612.4
2017-Sep-14 23:00N 36°03' E 014°02'714.0
2017-Sep-14 22:30N 36°10' E 014°04'714.2
2017-Sep-14 22:00N 36°17' E 014°05'713.6
2017-Sep-14 21:30N 36°21' E 013°58'714.3
2017-Sep-14 21:00N 36°25' E 013°50'714.1
2017-Sep-14 20:30N 36°28' E 013°43'714.0
2017-Sep-14 20:00N 36°32' E 013°35'713.8
2017-Sep-14 19:30N 36°35' E 013°28'714.0
2017-Sep-14 19:00N 36°39' E 013°20'714.0
2017-Sep-14 18:30N 36°42' E 013°13'713.9
2017-Sep-14 18:01N 36°45' E 013°05'714.0
2017-Sep-14 17:30N 36°49' E 012°58'713.7
2017-Sep-14 17:00N 36°53' E 012°51'1013.8
2017-Sep-14 16:15N 36°60' E 012°40'413.9
2017-Sep-14 15:59N 37°01' E 012°37'714.0
2017-Sep-14 15:29N 37°05' E 012°29'20113.6
2017-Sep-14 00:38N 38°23' E 008°34'213.7
2017-Sep-14 00:28N 38°24' E 008°31'24113.6
2017-Sep-13 06:43N 39°52' E 003°42'413.6
2017-Sep-13 06:26N 39°54' E 003°38'613.3
2017-Sep-13 06:00N 39°57' E 003°32'2413.3
2017-Sep-13 04:12N 40°11' E 003°06'313.5
2017-Sep-13 04:00N 40°12' E 003°03'713.5
2017-Sep-13 03:30N 40°16' E 002°56'713.6
2017-Sep-13 03:00N 40°20' E 002°48'713.6
2017-Sep-13 02:30N 40°24' E 002°41'713.8
2017-Sep-13 02:00N 40°27' E 002°33'713.8
2017-Sep-13 01:30N 40°31' E 002°25'713.7
2017-Sep-13 01:00N 40°34' E 002°17'713.9
2017-Sep-13 00:30N 40°37' E 002°09'713.5
2017-Sep-13 00:00N 40°40' E 002°01'713.4
2017-Sep-12 23:30N 40°44' E 001°54'713.4
2017-Sep-12 23:00N 40°47' E 001°46'713.4
2017-Sep-12 22:30N 40°51' E 001°39'713.4
2017-Sep-12 22:00N 40°55' E 001°32'713.3
2017-Sep-12 21:30N 40°58' E 001°24'713.3
2017-Sep-12 20:59N 41°02' E 001°16'4 8.7
2017-Sep-12 20:29N 41°05' E 001°13'0 0.2
2017-Sep-12 19:24N 41°05' E 001°13'0 0.0
2017-Sep-12 00:36N 41°05' E 001°13'0 0.0
2017-Sep-12 00:18N 41°05' E 001°13'0 0.0
2017-Sep-12 00:00N 41°05' E 001°13'0 0.0
2017-Sep-11 23:24N 41°05' E 001°13'0 0.0
2017-Sep-11 22:48N 41°05' E 001°13'0 0.0
2017-Sep-11 22:24N 41°05' E 001°13'0 0.0
2017-Sep-11 21:00N 41°05' E 001°13'0 0.0
2017-Sep-11 19:42N 41°05' E 001°13'0 0.0
2017-Sep-11 19:18N 41°05' E 001°13'0 0.0
2017-Sep-11 19:00N 41°05' E 001°13'0 0.0
2017-Sep-11 18:30N 41°05' E 001°13'0 0.0
2017-Sep-11 16:36N 41°05' E 001°13'0 0.0
2017-Sep-11 16:30N 41°05' E 001°13'0 0.2
2017-Sep-11 16:00N 41°05' E 001°13'1 2.9
2017-Sep-11 15:30N 41°05' E 001°15'0 0.3
2017-Sep-11 13:53N 41°05' E 001°15'  
2017-Sep-08 16:59N 41°05' E 001°15'0 0.0
2017-Sep-08 16:29N 41°05' E 001°15'0 0.0
2017-Sep-08 15:53N 41°05' E 001°15'0 0.0
2017-Sep-08 15:29N 41°05' E 001°15'19 4.2
2017-Sep-08 11:04N 40°47' E 001°09'613.5
2017-Sep-08 10:37N 40°41' E 001°08'213.2
2017-Sep-08 10:29N 40°39' E 001°08'1012.9
2017-Sep-08 09:43N 40°29' E 001°07'312.9
2017-Sep-08 09:30N 40°27' E 001°06'712.8
2017-Sep-08 08:56N 40°20' E 001°05'613.0
2017-Sep-08 08:29N 40°14' E 001°03'813.1
2017-Sep-08 07:53N 40°06' E 001°02'10713.4
2017-Sep-07 23:53N 38°21' E 000°37'513.9
2017-Sep-07 23:30N 38°16' E 000°35'814.3
2017-Sep-07 22:55N 38°08' E 000°32'714.5
2017-Sep-07 22:27N 38°01' E 000°29'814.2
2017-Sep-07 21:53N 37°54' E 000°24'714.1
2017-Sep-07 21:22N 37°48' E 000°21'1013.9
2017-Sep-07 20:39N 37°38' E 000°17'413.6
2017-Sep-07 20:19N 37°34' E 000°15'413.5
2017-Sep-07 20:00N 37°30' E 000°14'713.5
2017-Sep-07 19:30N 37°23' E 000°11'1013.4
2017-Sep-07 18:44N 37°14' E 000°07'513.4
2017-Sep-07 18:19N 37°08' E 000°05'513.6
2017-Sep-07 17:59N 37°04' E 000°03'  
Track history (hours):
 
Tides and Currents Weather Stations Pressure Air Temp Water Temp Dewpoint Dewpoint Depression Visibility Wind Speed Wind Dir Waves Ship Positions

Zad Elkhir

Last reported at 2017-Sep-17 15:11 UTC. Time now 2017-Sep-21 16:16 UTC.
Position N 30°25' E 019°36'.

Length 113 m; draft 4 m.

Type: Cargo ship. MMSI: 304010676.

Date/timePositionNaut miles runAvg speedWind from/ knotsBaromVisibWave heightAir tempDewpointWater temp
2017-Sep-17 15:11N 30°25' E 019°36'0 0.0
2017-Sep-17 14:53N 30°25' E 019°36'0 0.0
2017-Sep-17 13:35N 30°25' E 019°36'0 0.0
2017-Sep-17 13:29N 30°25' E 019°36'0 0.0
2017-Sep-17 12:47N 30°25' E 019°36'0 0.0
2017-Sep-17 12:29N 30°25' E 019°36'0 0.0
2017-Sep-17 11:05N 30°25' E 019°36'0 0.0
2017-Sep-17 10:59N 30°25' E 019°36'0 0.0
2017-Sep-17 10:29N 30°25' E 019°36'0 0.0
2017-Sep-17 09:47N 30°25' E 019°36'0 0.0
2017-Sep-17 09:11N 30°25' E 019°36'0 0.0
2017-Sep-17 08:56N 30°25' E 019°36'2 0.7
2017-Sep-17 06:32N 30°27' E 019°35'2 7.5
2017-Sep-17 06:13N 30°29' E 019°36'2 4.0
2017-Sep-17 05:48N 30°31' E 019°36'2 5.7
2017-Sep-17 05:30N 30°32' E 019°35'611.3
2017-Sep-17 05:00N 30°36' E 019°30'611.6
2017-Sep-17 04:30N 30°40' E 019°25'610.8
2017-Sep-17 03:54N 30°45' E 019°20'1412.8
2017-Sep-17 02:49N 30°56' E 019°10'513.4
2017-Sep-17 02:25N 31°00' E 019°07'613.5
2017-Sep-17 02:00N 31°05' E 019°03'713.4
2017-Sep-17 01:30N 31°10' E 018°59'713.4
2017-Sep-17 01:00N 31°16' E 018°54'713.2
2017-Sep-17 00:30N 31°21' E 018°49'713.1
2017-Sep-17 00:00N 31°26' E 018°45'613.1
2017-Sep-16 23:30N 31°31' E 018°40'1313.1
2017-Sep-16 22:31N 31°42' E 018°31'013.2
2017-Sep-16 22:29N 31°42' E 018°30'1313.0
2017-Sep-16 21:30N 31°52' E 018°21'2213.0
2017-Sep-16 19:48N 32°10' E 018°06'413.4
2017-Sep-16 19:30N 32°13' E 018°03'713.3
2017-Sep-16 18:57N 32°19' E 017°58'613.1
2017-Sep-16 18:30N 32°24' E 017°54'613.1
2017-Sep-16 18:00N 32°29' E 017°49'612.8
2017-Sep-16 17:30N 32°34' E 017°44'613.0
2017-Sep-16 17:00N 32°39' E 017°40'613.0
2017-Sep-16 16:30N 32°45' E 017°35'613.1
2017-Sep-16 16:00N 32°50' E 017°31'713.4
2017-Sep-16 15:30N 32°55' E 017°26'713.7
2017-Sep-16 15:00N 33°01' E 017°21'713.7
2017-Sep-16 14:30N 33°06' E 017°16'713.5
2017-Sep-16 14:00N 33°12' E 017°12'713.4
2017-Sep-16 13:30N 33°17' E 017°07'713.2
2017-Sep-16 13:00N 33°22' E 017°02'713.2
2017-Sep-16 12:30N 33°27' E 016°57'612.9
2017-Sep-16 12:00N 33°32' E 016°52'612.7
2017-Sep-16 11:30N 33°37' E 016°47'612.6
2017-Sep-16 11:00N 33°43' E 016°43'612.6
2017-Sep-16 10:30N 33°48' E 016°39'612.7
2017-Sep-16 10:00N 33°53' E 016°35'612.7
2017-Sep-16 09:30N 33°58' E 016°31'612.8
2017-Sep-16 09:00N 34°04' E 016°26'612.8
2017-Sep-16 08:30N 34°09' E 016°22'713.0
2017-Sep-16 08:00N 34°14' E 016°17'612.9
2017-Sep-16 07:30N 34°19' E 016°12'713.3
2017-Sep-16 07:00N 34°24' E 016°07'713.0
2017-Sep-16 06:30N 34°29' E 016°02'613.1
2017-Sep-16 06:00N 34°34' E 015°57'713.2
2017-Sep-16 05:30N 34°39' E 015°51'713.3
2017-Sep-16 05:00N 34°44' E 015°46'713.2
2017-Sep-16 04:30N 34°49' E 015°42'713.3
2017-Sep-16 04:00N 34°55' E 015°37'713.2
2017-Sep-16 03:30N 35°01' E 015°33'713.2
2017-Sep-16 03:00N 35°06' E 015°29'713.5
2017-Sep-16 02:30N 35°12' E 015°24'713.8
2017-Sep-16 02:00N 35°18' E 015°20'714.0
2017-Sep-16 01:30N 35°23' E 015°14'714.2
2017-Sep-16 01:00N 35°29' E 015°09'713.9
2017-Sep-16 00:30N 35°34' E 015°04'713.9
2017-Sep-16 00:00N 35°40' E 014°58'713.9
2017-Sep-15 23:30N 35°45' E 014°53'713.7
2017-Sep-15 23:00N 35°50' E 014°48'2 4.5
2017-Sep-15 22:30N 35°52' E 014°46'0 0.0
2017-Sep-15 22:00N 35°52' E 014°46'0 0.0
2017-Sep-15 21:27N 35°52' E 014°46'0 0.0
2017-Sep-15 21:00N 35°52' E 014°46'0 0.0
2017-Sep-15 20:30N 35°52' E 014°46'0 0.0
2017-Sep-15 20:00N 35°52' E 014°46'0 0.0
2017-Sep-15 19:30N 35°52' E 014°46'0 0.0
2017-Sep-15 19:00N 35°52' E 014°46'0 0.0
2017-Sep-15 18:30N 35°52' E 014°46'0 0.0
2017-Sep-15 17:48N 35°52' E 014°46'0 0.1
2017-Sep-15 17:27N 35°52' E 014°46'1 1.1
2017-Sep-15 17:00N 35°52' E 014°46'510.1
2017-Sep-15 16:30N 35°47' E 014°44'713.6
2017-Sep-15 16:00N 35°40' E 014°43'4 7.0
2017-Sep-15 15:30N 35°37' E 014°42'2 3.9
2017-Sep-15 15:00N 35°38' E 014°40'713.7
2017-Sep-15 14:30N 35°39' E 014°31'4 7.0
2017-Sep-15 14:00N 35°40' E 014°27'0 0.4
2017-Sep-15 13:25N 35°40' E 014°27'0 0.5
2017-Sep-15 12:58N 35°40' E 014°27'0 0.5
2017-Sep-15 12:30N 35°40' E 014°27'0 0.5
2017-Sep-15 11:55N 35°39' E 014°28'0 0.4
2017-Sep-15 11:30N 35°39' E 014°28'0 0.4
2017-Sep-15 11:00N 35°39' E 014°28'0 0.4
2017-Sep-15 10:30N 35°39' E 014°28'0 0.4
2017-Sep-15 09:59N 35°39' E 014°28'0 0.5
2017-Sep-15 09:29N 35°38' E 014°28'0 0.5
2017-Sep-15 09:01N 35°38' E 014°28'0 0.4
2017-Sep-15 08:29N 35°38' E 014°28'0 0.3
2017-Sep-15 08:00N 35°38' E 014°28'0 0.3
2017-Sep-15 07:30N 35°38' E 014°29'0 0.3
2017-Sep-15 07:00N 35°38' E 014°29'0 0.4
2017-Sep-15 06:30N 35°38' E 014°29'0 0.4
2017-Sep-15 06:00N 35°37' E 014°29'0 0.4
2017-Sep-15 05:30N 35°37' E 014°29'0 0.4
2017-Sep-15 05:00N 35°37' E 014°29'0 0.4
2017-Sep-15 04:30N 35°37' E 014°29'0 0.4
2017-Sep-15 04:01N 35°37' E 014°29'0 0.4
2017-Sep-15 03:29N 35°36' E 014°29'0 0.5
2017-Sep-15 03:00N 35°36' E 014°29'0 0.5
2017-Sep-15 02:30N 35°36' E 014°29'0 0.4
2017-Sep-15 02:00N 35°36' E 014°29'3 5.1
2017-Sep-15 01:30N 35°38' E 014°27'713.4
2017-Sep-15 01:00N 35°43' E 014°23'713.6
2017-Sep-15 00:30N 35°49' E 014°17'713.4
2017-Sep-15 00:00N 35°53' E 014°11'713.4
2017-Sep-14 23:30N 35°57' E 014°05'612.4
2017-Sep-14 23:00N 36°03' E 014°02'714.0
2017-Sep-14 22:30N 36°10' E 014°04'714.2
2017-Sep-14 22:00N 36°17' E 014°05'713.6
2017-Sep-14 21:30N 36°21' E 013°58'714.3
2017-Sep-14 21:00N 36°25' E 013°50'714.1
2017-Sep-14 20:30N 36°28' E 013°43'714.0
2017-Sep-14 20:00N 36°32' E 013°35'713.8
2017-Sep-14 19:30N 36°35' E 013°28'714.0
2017-Sep-14 19:00N 36°39' E 013°20'714.0
2017-Sep-14 18:30N 36°42' E 013°13'713.9
2017-Sep-14 18:01N 36°45' E 013°05'714.0
2017-Sep-14 17:30N 36°49' E 012°58'713.7
2017-Sep-14 17:00N 36°53' E 012°51'1013.8
2017-Sep-14 16:15N 36°60' E 012°40'413.9
2017-Sep-14 15:59N 37°01' E 012°37'714.0
2017-Sep-14 15:29N 37°05' E 012°29'20113.6
2017-Sep-14 00:38N 38°23' E 008°34'213.7
2017-Sep-14 00:28N 38°24' E 008°31'24113.6
2017-Sep-13 06:43N 39°52' E 003°42'413.6
2017-Sep-13 06:26N 39°54' E 003°38'613.3
2017-Sep-13 06:00N 39°57' E 003°32'2413.3
2017-Sep-13 04:12N 40°11' E 003°06'313.5
2017-Sep-13 04:00N 40°12' E 003°03'713.5
2017-Sep-13 03:30N 40°16' E 002°56'713.6
2017-Sep-13 03:00N 40°20' E 002°48'713.6
2017-Sep-13 02:30N 40°24' E 002°41'713.8
2017-Sep-13 02:00N 40°27' E 002°33'713.8
2017-Sep-13 01:30N 40°31' E 002°25'713.7
2017-Sep-13 01:00N 40°34' E 002°17'713.9
2017-Sep-13 00:30N 40°37' E 002°09'713.5
2017-Sep-13 00:00N 40°40' E 002°01'713.4
2017-Sep-12 23:30N 40°44' E 001°54'713.4
2017-Sep-12 23:00N 40°47' E 001°46'713.4
2017-Sep-12 22:30N 40°51' E 001°39'713.4
2017-Sep-12 22:00N 40°55' E 001°32'713.3
2017-Sep-12 21:30N 40°58' E 001°24'713.3
2017-Sep-12 20:59N 41°02' E 001°16'4 8.7
2017-Sep-12 20:29N 41°05' E 001°13'0 0.2
2017-Sep-12 19:24N 41°05' E 001°13'0 0.0
2017-Sep-12 00:36N 41°05' E 001°13'0 0.0
2017-Sep-12 00:18N 41°05' E 001°13'0 0.0
2017-Sep-12 00:00N 41°05' E 001°13'0 0.0
2017-Sep-11 23:24N 41°05' E 001°13'0 0.0
2017-Sep-11 22:48N 41°05' E 001°13'0 0.0
2017-Sep-11 22:24N 41°05' E 001°13'0 0.0
2017-Sep-11 21:00N 41°05' E 001°13'0 0.0
2017-Sep-11 19:42N 41°05' E 001°13'0 0.0
2017-Sep-11 19:18N 41°05' E 001°13'0 0.0
2017-Sep-11 19:00N 41°05' E 001°13'0 0.0
2017-Sep-11 18:30N 41°05' E 001°13'0 0.0
2017-Sep-11 16:36N 41°05' E 001°13'0 0.0
2017-Sep-11 16:30N 41°05' E 001°13'0 0.2
2017-Sep-11 16:00N 41°05' E 001°13'1 2.9
2017-Sep-11 15:30N 41°05' E 001°15'0 0.3
2017-Sep-11 13:53N 41°05' E 001°15'  
2017-Sep-08 16:59N 41°05' E 001°15'0 0.0
2017-Sep-08 16:29N 41°05' E 001°15'0 0.0
2017-Sep-08 15:53N 41°05' E 001°15'0 0.0
2017-Sep-08 15:29N 41°05' E 001°15'19 4.2
2017-Sep-08 11:04N 40°47' E 001°09'613.5
2017-Sep-08 10:37N 40°41' E 001°08'213.2
2017-Sep-08 10:29N 40°39' E 001°08'1012.9
2017-Sep-08 09:43N 40°29' E 001°07'312.9
2017-Sep-08 09:30N 40°27' E 001°06'712.8
2017-Sep-08 08:56N 40°20' E 001°05'613.0
2017-Sep-08 08:29N 40°14' E 001°03'813.1
2017-Sep-08 07:53N 40°06' E 001°02'10713.4
2017-Sep-07 23:53N 38°21' E 000°37'513.9
2017-Sep-07 23:30N 38°16' E 000°35'814.3
2017-Sep-07 22:55N 38°08' E 000°32'714.5
2017-Sep-07 22:27N 38°01' E 000°29'814.2
2017-Sep-07 21:53N 37°54' E 000°24'714.1
2017-Sep-07 21:22N 37°48' E 000°21'1013.9
2017-Sep-07 20:39N 37°38' E 000°17'413.6
2017-Sep-07 20:19N 37°34' E 000°15'413.5
2017-Sep-07 20:00N 37°30' E 000°14'713.5
2017-Sep-07 19:30N 37°23' E 000°11'1013.4
2017-Sep-07 18:44N 37°14' E 000°07'513.4
2017-Sep-07 18:19N 37°08' E 000°05'513.6
2017-Sep-07 17:59N 37°04' E 000°03'  

Dump ship's entire track history